Time;durP1;ratioP1;P1;durP2;ratioP2;P2;SDS_P1;SDS_P2;PMS_P1;PMS_P2;Temp;Humidity;BMP_temperature;BMP_pressure;BME280_temperature;BME280_humidity;BME280_pressure;Samples;Min_cycle;Max_cycle;Signal;HPM_P1;HPM_P2
2021/10/28 00:14:04;;;;;;;0.20;0.20;;;;;;;12.11;100.00;100186.53;5105095;28;20034;-67
2021/10/28 00:16:33;;;;;;;0.20;0.20;;;;;;;12.13;100.00;100191.69;5105026;28;20016;-68
2021/10/28 00:19:02;;;;;;;0.20;0.20;;;;;;;12.11;100.00;100194.31;5104798;28;20032;-68
2021/10/28 00:21:33;;;;;;;0.20;0.20;;;;;;;12.13;100.00;100195.16;5105011;28;20035;-67
2021/10/28 00:24:02;;;;;;;0.20;0.20;;;;;;;12.16;100.00;100203.81;5104859;28;20024;-67
2021/10/28 00:26:28;;;;;;;0.20;0.20;;;;;;;12.17;100.00;100195.97;5104953;28;20028;-68
2021/10/28 00:28:58;;;;;;;0.20;0.20;;;;;;;12.16;100.00;100198.59;5104371;28;20035;-67
2021/10/28 00:31:26;;;;;;;0.20;0.20;;;;;;;12.16;100.00;100204.66;5086578;28;20103;-68
2021/10/28 00:33:52;;;;;;;0.20;0.20;;;;;;;12.18;100.00;100202.88;5104598;28;20039;-67
2021/10/28 00:36:17;;;;;;;0.20;0.20;;;;;;;12.19;100.00;100209.78;5104896;28;20039;-68
2021/10/28 00:38:42;;;;;;;0.20;0.20;;;;;;;12.17;100.00;100174.28;5104557;28;20020;-67
2021/10/28 00:41:09;;;;;;;0.20;0.20;;;;;;;12.19;100.00;100198.56;5104530;28;20419;-67
2021/10/28 00:43:45;;;;;;;0.20;0.20;;;;;;;12.18;100.00;100189.00;5104254;28;20024;-67
2021/10/28 00:46:10;;;;;;;0.20;0.20;;;;;;;12.19;100.00;100199.38;5086096;28;20024;-67
2021/10/28 00:48:37;;;;;;;0.20;0.20;;;;;;;12.19;100.00;100201.16;5104570;28;20035;-67
2021/10/28 00:51:02;;;;;;;0.20;0.20;;;;;;;12.16;100.00;100198.59;5104569;28;20052;-68
2021/10/28 00:53:28;;;;;;;0.20;0.20;;;;;;;12.19;100.00;100204.59;5104353;28;20388;-68
2021/10/28 00:55:54;;;;;;;0.20;0.20;;;;;;;12.20;100.00;100208.94;5104238;28;20044;-68
2021/10/28 00:58:23;;;;;;;0.20;0.20;;;;;;;12.21;100.00;100207.16;5103948;28;20027;-68
2021/10/28 01:00:52;;;;;;;0.20;0.20;;;;;;;12.19;100.00;100201.16;5103876;28;20024;-67
2021/10/28 01:03:19;;;;;;;0.20;0.20;;;;;;;12.22;100.00;100193.28;5104117;28;20277;-68
2021/10/28 01:05:45;;;;;;;0.20;0.20;;;;;;;12.19;100.00;100190.75;5104489;28;20020;-68
2021/10/28 01:08:11;;;;;;;0.20;0.20;;;;;;;12.23;100.00;100195.00;5104264;28;20023;-68
2021/10/28 01:10:36;;;;;;;0.20;0.20;;;;;;;12.23;100.00;100195.84;5104069;28;20387;-67
2021/10/28 01:13:01;;;;;;;0.20;0.20;;;;;;;12.22;100.00;100191.53;5103779;28;20016;-68
2021/10/28 01:15:27;;;;;;;0.20;0.20;;;;;;;12.23;100.00;100195.00;5103929;28;20019;-68
2021/10/28 01:17:52;;;;;;;0.20;0.20;;;;;;;12.21;100.00;100192.41;5103925;28;20016;-68
2021/10/28 01:20:18;;;;;;;0.20;0.20;;;;;;;12.25;100.00;100198.44;5103891;28;20134;-68
2021/10/28 01:22:43;;;;;;;0.20;0.20;;;;;;;12.24;100.00;100192.34;5103612;28;20024;-68
2021/10/28 01:25:11;;;;;;;0.20;0.20;;;;;;;12.25;100.00;100201.88;5103556;28;20072;-68
2021/10/28 01:27:37;;;;;;;0.20;0.20;;;;;;;12.26;100.00;100192.31;5103446;28;20057;-68
2021/10/28 01:30:06;;;;;;;0.20;0.20;;;;;;;12.27;100.00;100194.03;5103425;28;20048;-67
2021/10/28 01:32:32;;;;;;;0.20;0.20;;;;;;;12.26;100.00;100189.72;5103733;28;20036;-67
2021/10/28 01:34:58;;;;;;;0.20;0.20;;;;;;;12.25;100.00;100186.25;5103961;28;20032;-66
2021/10/28 01:37:23;;;;;;;0.20;0.20;;;;;;;12.24;100.00;100189.75;5103847;28;20020;-67
2021/10/28 01:39:48;;;;;;;0.20;0.20;;;;;;;12.24;100.00;100196.69;5103606;28;20064;-66
2021/10/28 01:42:14;;;;;;;0.20;0.20;;;;;;;12.27;100.00;100186.22;5085333;28;20044;-66
2021/10/28 01:44:40;;;;;;;0.20;0.20;;;;;;;12.27;100.00;100192.28;5103575;28;20031;-66
2021/10/28 01:47:06;;;;;;;0.20;0.20;;;;;;;12.29;100.00;100194.88;5119062;28;20044;-66
2021/10/28 01:49:32;;;;;;;0.20;0.20;;;;;;;12.31;100.00;100200.91;5103411;28;20110;-66
2021/10/28 01:51:58;;;;;;;0.20;0.20;;;;;;;12.31;100.00;100195.72;5103461;28;20012;-67
2021/10/28 01:54:25;;;;;;;0.30;0.30;;;;;;;12.33;100.00;100199.13;5103465;28;20024;-67
2021/10/28 01:56:51;;;;;;;0.20;0.20;;;;;;;12.35;100.00;100199.09;5104538;28;20024;-67
2021/10/28 01:59:17;;;;;;;0.20;0.20;;;;;;;12.36;100.00;100203.44;5107438;28;20271;-66
2021/10/28 02:01:43;;;;;;;0.20;0.20;;;;;;;12.34;100.00;100198.25;5107594;28;20108;-67
2021/10/28 02:04:09;;;;;;;0.20;0.20;;;;;;;12.35;100.00;100201.69;5089448;28;20024;-67
2021/10/28 02:06:36;;;;;;;0.20;0.20;;;;;;;12.34;100.00;100197.38;5107567;28;20060;-66
2021/10/28 02:09:02;;;;;;;0.20;0.20;;;;;;;12.34;100.00;100198.25;5107466;28;20020;-66
2021/10/28 02:11:28;;;;;;;0.20;0.20;;;;;;;12.35;100.00;100205.16;5107575;28;20024;-67
2021/10/28 02:13:58;;;;;;;0.20;0.20;;;;;;;12.35;100.00;100199.97;5106926;28;20031;-66
2021/10/28 02:16:31;;;;;;;0.20;0.20;;;;;;;12.36;100.00;100206.88;5107423;28;20054;-66
2021/10/28 02:18:58;;;;;;;0.20;0.20;;;;;;;12.36;100.00;100196.47;5107139;28;20430;-66
2021/10/28 02:21:23;;;;;;;0.20;0.20;;;;;;;12.36;100.00;100206.88;5107001;28;20024;-66
2021/10/28 02:23:49;;;;;;;0.20;0.20;;;;;;;12.37;100.00;100203.41;5106961;28;20043;-66
2021/10/28 02:26:14;;;;;;;0.20;0.20;;;;;;;12.35;100.00;100210.38;5107038;28;20036;-66
2021/10/28 02:28:39;;;;;;;0.20;0.20;;;;;;;12.36;100.00;100209.47;5106751;28;20027;-66
2021/10/28 02:31:05;;;;;;;0.20;0.20;;;;;;;12.38;100.00;100217.28;5107006;28;20026;-65
2021/10/28 02:33:30;;;;;;;0.20;0.20;;;;;;;12.38;100.00;100225.09;5088544;28;20220;-66
2021/10/28 02:35:55;;;;;;;0.20;0.20;;;;;;;12.39;100.00;100204.25;5107019;28;20020;-65
2021/10/28 02:38:21;;;;;;;0.22;0.22;;;;;;;12.38;100.00;100212.06;5107042;28;20012;-65
2021/10/28 02:40:46;;;;;;;0.20;0.20;;;;;;;12.38;100.00;100212.91;5106729;28;20066;-65
2021/10/28 02:43:11;;;;;;;0.20;0.20;;;;;;;12.38;100.00;100205.09;5106506;28;20027;-65
2021/10/28 02:45:37;;;;;;;0.20;0.20;;;;;;;12.39;100.00;100211.19;5106846;28;20056;-65
2021/10/28 02:48:03;;;;;;;0.20;0.20;;;;;;;12.39;100.00;100212.03;5122424;28;20447;-65
2021/10/28 02:50:29;;;;;;;0.20;0.20;;;;;;;12.39;100.00;100213.78;5106641;28;20054;-65
2021/10/28 02:52:54;;;;;;;0.20;0.20;;;;;;;12.36;100.00;100206.88;5106546;28;20099;-65
2021/10/28 02:55:20;;;;;;;0.28;0.28;;;;;;;12.39;100.00;100199.03;5106221;28;20031;-65
2021/10/28 02:57:46;;;;;;;0.20;0.20;;;;;;;12.39;100.00;100208.56;5106351;28;20058;-65
2021/10/28 03:00:12;;;;;;;0.20;0.20;;;;;;;12.42;100.00;100205.03;5106257;28;20024;-64
2021/10/28 03:02:38;;;;;;;0.20;0.20;;;;;;;12.42;100.00;100218.94;5106321;28;20035;-65
2021/10/28 03:05:05;;;;;;;0.22;0.22;;;;;;;12.43;100.00;100222.41;5106228;28;20024;-65
2021/10/28 03:07:33;;;;;;;0.20;0.20;;;;;;;12.43;100.00;100217.19;5105911;28;20390;-65
2021/10/28 03:09:58;;;;;;;0.20;0.20;;;;;;;12.42;100.00;100213.72;5105220;28;20016;-65
2021/10/28 03:12:24;;;;;;;0.20;0.20;;;;;;;12.42;100.00;100203.31;5105922;28;20373;-65
2021/10/28 03:14:52;;;;;;;0.20;0.20;;;;;;;12.41;100.00;100213.75;5106063;28;20146;-65
2021/10/28 03:27:36;;;;;;;0.20;0.20;;;;;;;12.38;100.00;100220.72;5105715;28;20036;-65
2021/10/28 03:30:01;;;;;;;0.20;0.20;;;;;;;12.41;100.00;100218.97;5105861;28;20009;-65
2021/10/28 03:32:28;;;;;;;0.20;0.20;;;;;;;12.40;100.00;100220.69;5105873;28;20088;-65
2021/10/28 03:34:54;;;;;;;0.20;0.20;;;;;;;12.38;100.00;100218.13;5087495;28;20020;-66
2021/10/28 04:31:04;;;;;;;0.22;0.22;;;;;;;12.13;100.00;100236.81;5064187;28;20051;-64
2021/10/28 04:33:29;;;;;;;0.30;0.30;;;;;;;12.11;100.00;100245.50;5064076;28;20064;-64
2021/10/28 04:35:55;;;;;;;0.20;0.20;;;;;;;12.09;100.00;100237.72;5064081;28;20017;-64
2021/10/28 04:38:20;;;;;;;0.20;0.20;;;;;;;12.10;100.00;100244.66;5064281;28;20326;-64
2021/10/28 04:40:45;;;;;;;0.20;0.20;;;;;;;11.94;100.00;100219.75;5063770;28;20045;-64
2021/10/28 04:43:11;;;;;;;0.20;0.20;;;;;;;12.07;100.00;100247.28;5063931;28;20021;-64
2021/10/28 04:45:36;;;;;;;0.30;0.30;;;;;;;12.07;100.00;100243.81;5062749;28;20515;-64
2021/10/28 04:48:02;;;;;;;0.20;0.20;;;;;;;12.06;100.00;100242.94;5063825;28;20088;-64
2021/10/28 04:50:27;;;;;;;0.20;0.20;;;;;;;12.05;100.00;100242.97;5062567;28;20016;-65
2021/10/28 04:52:52;;;;;;;0.20;0.20;;;;;;;12.06;100.00;100242.94;5063937;28;20092;-67
2021/10/28 04:55:18;;;;;;;0.20;0.20;;;;;;;11.94;100.00;100220.63;5063770;28;20029;-66
2021/10/28 04:57:43;;;;;;;0.20;0.20;;;;;;;12.03;100.00;100237.78;5063625;28;20028;-65
2021/10/28 05:00:09;;;;;;;0.20;0.20;;;;;;;11.91;100.00;100231.06;5063944;28;20088;-65
2021/10/28 05:02:34;;;;;;;0.20;0.20;;;;;;;12.02;100.00;100249.09;5063863;28;20035;-65
2021/10/28 05:05:00;;;;;;;0.20;0.20;;;;;;;12.03;100.00;100245.59;5063715;28;20021;-67
2021/10/28 05:07:25;;;;;;;0.20;0.20;;;;;;;12.02;100.00;100256.91;5063767;28;20075;-67
2021/10/28 05:09:51;;;;;;;0.28;0.28;;;;;;;12.01;100.00;100257.81;5063951;28;20017;-66
2021/10/28 05:12:16;;;;;;;0.20;0.20;;;;;;;11.99;100.00;100246.56;5064028;28;20096;-67
2021/10/28 05:14:42;;;;;;;0.20;0.20;;;;;;;11.81;100.00;100214.75;5063364;28;20024;-67
2021/10/28 05:17:07;;;;;;;0.20;0.20;;;;;;;11.99;100.00;100249.16;5063624;28;20025;-66
2021/10/28 05:19:38;;;;;;;0.20;0.20;;;;;;;11.97;100.00;100245.72;5063482;28;20032;-66
2021/10/28 05:22:05;;;;;;;0.20;0.20;;;;;;;11.97;100.00;100246.56;5062151;28;20052;-65
2021/10/28 05:24:31;;;;;;;0.22;0.22;;;;;;;11.96;100.00;100239.66;5076063;28;20044;-66
2021/10/28 05:26:56;;;;;;;0.20;0.20;;;;;;;11.99;100.00;100238.75;5103638;28;20024;-65
2021/10/28 05:29:21;;;;;;;0.20;0.20;;;;;;;11.80;100.00;100215.66;5103476;28;20084;-66
2021/10/28 05:31:47;;;;;;;0.20;0.20;;;;;;;11.97;100.00;100251.78;5103016;28;20016;-68
2021/10/28 05:34:12;;;;;;;0.20;0.20;;;;;;;11.93;100.00;100239.72;5103497;28;20024;-67
2021/10/28 05:36:37;;;;;;;0.20;0.20;;;;;;;11.96;100.00;100246.59;5085382;28;20024;-68
2021/10/28 05:39:03;;;;;;;0.20;0.20;;;;;;;11.82;100.00;100232.06;5103447;28;20111;-68
2021/10/28 05:41:28;;;;;;;0.20;0.20;;;;;;;11.93;100.00;100242.31;5103214;28;20088;-67
2021/10/28 05:43:54;;;;;;;0.20;0.20;;;;;;;11.92;100.00;100265.75;5103297;28;20020;-68
2021/10/28 05:46:19;;;;;;;0.20;0.20;;;;;;;11.82;100.00;100239.03;5103613;28;20035;-68
2021/10/28 05:48:45;;;;;;;0.20;0.20;;;;;;;11.89;100.00;100256.25;5103528;28;20046;-68
2021/10/28 05:51:11;;;;;;;0.20;0.20;;;;;;;11.87;100.00;100245.88;5103426;28;20027;-67
2021/10/28 05:53:38;;;;;;;0.20;0.20;;;;;;;11.76;100.00;100233.03;5103458;28;20053;-68
2021/10/28 05:56:03;;;;;;;0.20;0.20;;;;;;;11.84;100.00;100256.31;5103542;28;20032;-68
2021/10/28 05:58:29;;;;;;;0.20;0.20;;;;;;;11.82;100.00;100250.28;5118521;28;20032;-68
2021/10/28 06:00:54;;;;;;;0.20;0.20;;;;;;;11.70;100.00;100235.75;5103090;28;20028;-68
2021/10/28 06:03:19;;;;;;;0.20;0.20;;;;;;;11.69;100.00;100234.03;5118907;28;20027;-68
2021/10/28 06:05:45;;;;;;;0.20;0.20;;;;;;;11.75;100.00;100244.34;5103110;28;20077;-69
2021/10/28 06:08:10;;;;;;;0.30;0.30;;;;;;;11.83;100.00;100277.16;5085145;28;20509;-69
2021/10/28 06:10:35;;;;;;;0.20;0.20;;;;;;;11.67;100.00;100250.53;5085062;28;20027;-69
2021/10/28 06:13:04;;;;;;;0.30;0.30;;;;;;;11.74;100.00;100259.97;5084780;28;20012;-69
2021/10/28 06:15:31;;;;;;;0.20;0.20;;;;;;;11.84;100.00;100261.53;5103308;28;20070;-70
2021/10/28 06:17:59;;;;;;;0.20;0.20;;;;;;;11.84;100.00;100271.94;5103126;28;20051;-70
2021/10/28 06:20:26;;;;;;;0.20;0.20;;;;;;;11.82;100.00;100267.66;5103190;28;20035;-70
2021/10/28 06:22:52;;;;;;;0.20;0.20;;;;;;;11.85;100.00;100273.63;5103019;28;20051;-70
2021/10/28 06:25:19;;;;;;;0.20;0.20;;;;;;;11.88;100.00;100278.81;5103089;28;20113;-71
2021/10/28 06:27:44;;;;;;;0.20;0.20;;;;;;;11.87;100.00;100258.88;5102748;28;20024;-69
2021/10/28 06:30:10;;;;;;;0.20;0.20;;;;;;;11.89;100.00;100259.72;5103035;28;20073;-69
2021/10/28 06:32:43;;;;;;;0.30;0.30;;;;;;;11.90;100.00;100266.63;5103057;28;20047;-68
2021/10/28 06:35:08;;;;;;;0.20;0.20;;;;;;;11.93;100.00;100265.75;5102980;28;20114;-67
2021/10/28 06:37:33;;;;;;;0.20;0.20;;;;;;;11.94;100.00;100266.56;5103032;28;20054;-66
2021/10/28 06:39:59;;;;;;;0.20;0.20;;;;;;;11.87;100.00;100234.59;5102718;28;20422;-66
2021/10/28 06:42:25;;;;;;;0.20;0.20;;;;;;;11.84;100.00;100225.09;5084745;28;20023;-67
2021/10/28 06:44:50;;;;;;;0.30;0.30;;;;;;;11.87;100.00;100261.47;5106489;28;20020;-67
2021/10/28 06:47:16;;;;;;;0.30;0.30;;;;;;;11.97;100.00;100266.53;5122268;28;20134;-68
2021/10/28 06:49:42;;;;;;;0.30;0.30;;;;;;;11.95;100.00;100252.69;5106451;28;20023;-68
2021/10/28 06:52:12;;;;;;;0.30;0.30;;;;;;;11.89;100.00;100270.13;5122307;28;20084;-67
2021/10/28 06:54:41;;;;;;;0.20;0.20;;;;;;;11.97;100.00;100267.38;5106511;28;20027;-68
2021/10/28 07:04:58;;;;;;;0.20;0.20;;;;;;;11.93;100.00;100272.66;5106250;28;20028;-68
2021/10/28 07:07:25;;;;;;;0.30;0.30;;;;;;;12.03;100.00;100289.84;5087868;28;20068;-68
2021/10/28 07:10:04;;;;;;;0.20;0.20;;;;;;;11.98;100.00;100295.13;5106339;28;20518;-68
2021/10/28 07:15:13;;;;;;;0.25;0.25;;;;;;;12.05;100.00;100292.41;5105962;28;20027;-69
2021/10/28 07:23:18;;;;;;;0.30;0.30;;;;;;;12.00;100.00;100295.09;5106041;28;20027;-70
2021/10/28 08:16:46;;;;;;;1.10;1.10;;;;;;;12.10;100.00;100332.25;5105022;28;20024;-69
2021/10/28 08:19:46;;;;;;;0.20;0.20;;;;;;;12.13;100.00;100332.22;5086515;28;20024;-68
2021/10/28 08:22:08;;;;;;;0.30;0.30;;;;;;;12.07;100.00;100322.75;5102435;28;20044;-70
2021/10/28 08:30:04;;;;;;;0.40;0.40;;;;;;;12.20;100.00;100335.59;5104435;28;20096;-69
2021/10/28 08:32:29;;;;;;;0.25;0.25;;;;;;;12.10;100.00;100320.13;5104794;28;20016;-70
2021/10/28 08:34:57;;;;;;;4.22;2.30;;;;;;;12.18;100.00;100334.75;5120354;28;20035;-69
2021/10/28 08:37:29;;;;;;;0.40;0.40;;;;;;;12.16;100.00;100324.34;5086266;28;20024;-69
2021/10/28 08:39:55;;;;;;;;;;;;;;;12.24;100.00;100337.25;5105075;28;20076;-70
2021/10/28 08:42:23;;;;;;;0.30;0.30;;;;;;;12.08;100.00;100329.69;5086190;28;19934;-69
2021/10/28 08:44:51;;;;;;;0.30;0.30;;;;;;;12.17;100.00;100340.84;5119970;28;20024;-69
2021/10/28 08:47:18;;;;;;;0.43;0.43;;;;;;;12.15;100.00;100340.88;5104372;28;20095;-69
2021/10/28 08:50:04;;;;;;;0.30;0.30;;;;;;;12.08;99.90;100337.50;5104225;28;20024;-69
2021/10/28 09:26:53;;;;;;;0.30;0.30;;;;;;;12.01;98.77;100385.28;5103706;28;20051;-69
2021/10/28 09:32:33;;;;;;;0.40;0.40;;;;;;;11.98;98.00;100387.94;5103378;28;20043;-69
2021/10/28 09:44:12;;;;;;;0.20;0.20;;;;;;;11.98;97.19;100380.13;5060456;28;19912;-69
2021/10/28 09:46:50;;;;;;;1.15;1.10;;;;;;;11.98;97.98;100388.78;5043703;28;20033;-69
2021/10/28 09:58:05;;;;;;;0.20;0.20;;;;;;;12.07;96.90;100399.94;4981434;28;20073;-69
2021/10/28 10:00:39;;;;;;;0.30;0.30;;;;;;;11.92;96.72;100378.47;4979318;28;20062;-68
2021/10/28 10:03:21;;;;;;;0.45;0.45;;;;;;;12.12;97.12;100396.41;4981373;28;20066;-69
2021/10/28 10:05:55;;;;;;;0.32;0.32;;;;;;;12.04;96.96;100382.63;4981619;28;20035;-68
2021/10/28 10:08:21;;;;;;;1.17;1.17;;;;;;;12.14;96.07;100401.63;4981475;28;20034;-69
2021/10/28 10:10:47;;;;;;;0.30;0.30;;;;;;;12.13;96.64;100408.56;4981499;28;20042;-69
2021/10/28 10:13:12;;;;;;;0.22;0.22;;;;;;;11.96;95.90;100389.69;4988379;28;20050;-70
2021/10/28 10:15:39;;;;;;;0.38;0.38;;;;;;;12.12;96.46;100396.41;5000964;28;20042;-69
2021/10/28 10:18:06;;;;;;;0.20;0.20;;;;;;;12.12;96.11;100422.44;5002044;28;20037;-68
2021/10/28 10:20:45;;;;;;;0.30;0.30;;;;;;;12.03;95.91;100405.19;5004749;28;20034;-69
2021/10/28 10:25:54;;;;;;;0.30;0.30;;;;;;;12.17;96.11;100404.19;5004449;28;20138;-69
2021/10/28 12:45:57;;;;;;;0.50;0.50;;;;;;;12.67;90.03;100363.44;5104786;28;20058;-68
2021/10/28 15:28:22;;;;;;;0.80;0.80;;;;;;;11.46;90.22;100372.16;5105807;28;20053;-69
2021/10/28 15:32:05;;;;;;;0.28;0.28;;;;;;;11.49;89.72;100365.19;5105714;28;20020;-68
2021/10/28 15:55:27;;;;;;;0.30;0.30;;;;;;;11.12;90.16;100345.69;5105448;28;20020;-69
2021/10/28 16:24:23;;;;;;;0.30;0.30;;;;;;;10.76;91.53;100350.41;5104611;28;20083;-69
2021/10/28 16:26:49;;;;;;;1.95;1.40;;;;;;;10.69;91.71;100347.00;5104787;28;20024;-69
2021/10/28 16:29:14;;;;;;;0.40;0.40;;;;;;;10.63;92.04;100345.34;5104410;28;20144;-68
2021/10/28 16:31:41;;;;;;;0.20;0.20;;;;;;;10.65;92.11;100340.16;5104403;28;20424;-68
2021/10/28 16:34:07;;;;;;;0.28;0.28;;;;;;;10.61;91.78;100338.44;5104550;28;20024;-69
2021/10/28 16:36:33;;;;;;;0.30;0.30;;;;;;;10.57;92.25;100337.63;5104816;28;20024;-68
2021/10/28 16:39:01;;;;;;;1.35;1.35;;;;;;;10.62;92.02;100325.44;5104413;28;20045;-68
2021/10/28 16:41:26;;;;;;;0.77;0.77;;;;;;;10.56;92.42;100341.06;5104519;28;20028;-68
2021/10/28 16:43:52;;;;;;;0.40;0.40;;;;;;;10.52;92.46;100334.19;5104040;28;20537;-68
2021/10/28 16:46:18;;;;;;;2.95;2.85;;;;;;;10.51;92.67;100345.47;5086118;28;20034;-68
2021/10/28 16:48:43;;;;;;;1.08;1.08;;;;;;;10.50;92.61;100342.00;5104415;28;20020;-67
2021/10/28 16:51:09;;;;;;;0.30;0.30;;;;;;;10.52;92.43;100334.19;5104254;28;20169;-67
2021/10/28 16:53:35;;;;;;;1.20;1.20;;;;;;;10.50;92.72;100335.94;5104193;28;20023;-68
2021/10/28 16:56:00;;;;;;;0.65;0.65;;;;;;;10.48;92.61;100328.16;5103947;28;20024;-68
2021/10/28 16:58:28;;;;;;;1.00;1.00;;;;;;;10.48;92.94;100332.53;5103624;28;20319;-68
2021/10/28 17:00:54;;;;;;;0.43;0.43;;;;;;;10.50;93.02;100346.31;5103926;28;20245;-68
2021/10/28 17:03:19;;;;;;;0.47;0.47;;;;;;;10.49;93.08;100342.88;5104036;28;20033;-68
2021/10/28 17:05:46;;;;;;;0.30;0.30;;;;;;;10.49;92.96;100339.44;5104059;28;20383;-69
2021/10/28 17:08:12;;;;;;;0.30;0.30;;;;;;;10.52;93.24;100334.19;5104160;28;20338;-68
2021/10/28 17:10:38;;;;;;;0.30;0.30;;;;;;;10.54;92.77;100330.72;5085351;28;20046;-68
2021/10/28 17:13:05;;;;;;;0.45;0.40;;;;;;;10.53;93.07;100341.09;5103788;28;20045;-67
2021/10/28 17:15:30;;;;;;;1.02;1.02;;;;;;;10.54;92.95;100328.09;5103589;28;20179;-69
2021/10/28 17:17:56;;;;;;;0.60;0.60;;;;;;;10.57;92.78;100323.78;5119579;28;20089;-68
2021/10/28 17:20:21;;;;;;;0.22;0.22;;;;;;;10.57;92.92;100329.84;5103597;28;20543;-68
2021/10/28 17:22:47;;;;;;;4.25;1.27;;;;;;;10.59;93.02;100322.88;5085344;28;20024;-69
2021/10/28 17:25:20;;;;;;;0.28;0.28;;;;;;;10.57;93.22;100316.84;5103265;28;20055;-68
2021/10/28 17:27:47;;;;;;;0.20;0.20;;;;;;;10.56;93.26;100317.72;5102775;28;20024;-67
2021/10/28 17:30:15;;;;;;;0.38;0.38;;;;;;;10.64;92.81;100318.50;5103303;28;20457;-68
2021/10/28 17:32:42;;;;;;;0.30;0.30;;;;;;;10.55;93.03;100303.03;5103429;28;20039;-67
2021/10/28 17:35:08;;;;;;;0.32;0.32;;;;;;;10.54;93.14;100304.75;5103520;28;20222;-70
2021/10/28 17:37:34;;;;;;;1.15;0.88;;;;;;;10.57;93.18;100306.47;5103348;28;20031;-68
2021/10/28 17:39:59;;;;;;;1.75;1.35;;;;;;;10.56;93.49;100306.50;5085367;28;20027;-69
2021/10/28 17:42:25;;;;;;;3.03;2.35;;;;;;;10.53;93.55;100299.56;5103197;28;20020;-69
2021/10/28 17:44:56;;;;;;;0.20;0.20;;;;;;;10.61;93.26;100302.97;5103186;28;20046;-69
2021/10/28 17:47:22;;;;;;;0.63;0.60;;;;;;;10.57;93.81;100296.09;5103433;28;20133;-69
2021/10/28 17:49:48;;;;;;;0.30;0.30;;;;;;;10.61;93.41;100302.97;5103612;28;20173;-70
2021/10/28 17:52:14;;;;;;;0.75;0.75;;;;;;;10.64;93.68;100302.94;5103235;28;20016;-69
2021/10/28 17:54:39;;;;;;;0.40;0.40;;;;;;;10.63;93.90;100306.41;5103600;28;20035;-68
2021/10/28 17:57:06;;;;;;;0.30;0.30;;;;;;;10.68;93.73;100301.16;5103447;28;20028;-69
2021/10/28 17:59:32;;;;;;;0.85;0.85;;;;;;;10.63;93.84;100296.03;5103214;28;20025;-69
2021/10/28 18:01:57;;;;;;;0.60;0.60;;;;;;;10.65;93.80;100299.44;5103391;28;20031;-68
2021/10/28 18:04:23;;;;;;;0.20;0.20;;;;;;;10.71;93.70;100297.66;5103179;28;20047;-69
2021/10/28 18:06:50;;;;;;;0.30;0.30;;;;;;;10.74;93.37;100310.63;5103163;28;20023;-69
2021/10/28 18:09:16;;;;;;;0.88;0.88;;;;;;;10.76;93.28;100295.88;5103317;28;20020;-68
2021/10/28 18:11:41;;;;;;;0.32;0.32;;;;;;;10.82;93.26;100301.00;5103146;28;20020;-68
2021/10/28 18:14:15;;;;;;;0.30;0.30;;;;;;;10.82;93.21;100294.94;5102851;28;20035;-68
2021/10/28 18:16:41;;;;;;;0.30;0.30;;;;;;;10.86;93.15;100302.69;5103194;28;20024;-69
2021/10/28 18:19:08;;;;;;;1.60;1.15;;;;;;;10.85;93.37;100300.97;5102923;28;20031;-69
2021/10/28 18:21:37;;;;;;;0.30;0.30;;;;;;;10.91;92.81;100300.91;5102906;28;20028;-69
2021/10/28 18:24:04;;;;;;;0.20;0.20;;;;;;;10.90;92.76;100293.13;5103246;28;20035;-69
2021/10/28 18:26:29;;;;;;;0.30;0.30;;;;;;;10.88;92.93;100300.94;5102888;28;20056;-69
2021/10/28 18:28:58;;;;;;;0.30;0.30;;;;;;;10.91;93.17;100290.50;5103044;28;20039;-67
2021/10/28 18:31:26;;;;;;;2.38;1.25;;;;;;;10.90;92.92;100291.41;5103002;28;20020;-68
2021/10/28 18:33:52;;;;;;;1.33;1.33;;;;;;;10.92;92.98;100301.78;5103105;28;20039;-69
2021/10/28 18:36:18;;;;;;;4.78;4.35;;;;;;;10.91;92.74;100300.91;5103110;28;20468;-68
2021/10/28 18:38:45;;;;;;;1.33;1.30;;;;;;;10.91;92.80;100290.50;5103735;28;20126;-68
2021/10/28 18:41:12;;;;;;;1.65;1.55;;;;;;;10.93;92.56;100289.66;5106921;28;20027;-68
2021/10/28 18:43:39;;;;;;;0.30;0.30;;;;;;;10.98;92.29;100300.81;5106546;28;20035;-68
2021/10/28 18:46:04;;;;;;;0.20;0.20;;;;;;;10.94;92.32;100299.16;5106874;28;20024;-68
2021/10/28 18:48:30;;;;;;;0.30;0.30;;;;;;;10.86;92.13;100281.06;5106612;28;20082;-68
2021/10/28 18:50:56;;;;;;;0.20;0.20;;;;;;;10.95;91.95;100291.34;5106511;28;20361;-68
2021/10/28 18:53:21;;;;;;;0.47;0.47;;;;;;;10.99;91.88;100289.59;5106807;28;20144;-68
2021/10/28 18:55:47;;;;;;;0.20;0.20;;;;;;;10.96;91.96;100287.84;5106420;28;20059;-67
2021/10/28 18:58:13;;;;;;;0.43;0.43;;;;;;;10.99;92.25;100282.63;5106698;28;20026;-68
2021/10/28 19:00:38;;;;;;;0.43;0.43;;;;;;;10.99;92.35;100290.41;5106182;28;20073;-68
2021/10/28 19:03:04;;;;;;;0.20;0.20;;;;;;;11.02;91.98;100286.94;5106339;28;20438;-67
2021/10/28 19:05:29;;;;;;;0.73;0.73;;;;;;;11.03;91.75;100280.84;5106381;28;20030;-68
2021/10/28 19:07:55;;;;;;;0.70;0.70;;;;;;;11.01;91.83;100285.19;5088140;28;20020;-67
2021/10/28 19:10:22;;;;;;;0.20;0.20;;;;;;;11.03;91.56;100289.53;5106211;28;20368;-69
2021/10/28 19:12:47;;;;;;;0.68;0.68;;;;;;;10.99;91.77;100277.44;5106199;28;20016;-68
2021/10/28 19:15:15;;;;;;;5.03;1.65;;;;;;;10.94;92.08;100283.56;5105957;28;20103;-67
2021/10/28 19:17:43;;;;;;;0.30;0.30;;;;;;;10.96;91.61;100271.44;5106153;28;20020;-68
2021/10/28 19:20:09;;;;;;;0.20;0.20;;;;;;;10.94;91.63;100274.06;5105999;28;20027;-68
2021/10/28 19:22:35;;;;;;;0.82;0.82;;;;;;;10.91;92.03;100267.13;5105771;28;20024;-68
2021/10/28 19:25:05;;;;;;;0.20;0.20;;;;;;;10.97;91.86;100268.81;5105527;28;20047;-71
2021/10/28 19:27:30;;;;;;;1.48;1.38;;;;;;;10.93;92.04;100263.69;5105675;28;20035;-68
2021/10/28 19:30:06;;;;;;;1.42;1.38;;;;;;;10.95;91.91;100273.16;5105483;28;20016;-67
2021/10/28 19:32:31;;;;;;;0.85;0.85;;;;;;;10.95;91.86;100274.88;5105512;28;20047;-68
2021/10/28 19:34:58;;;;;;;0.30;0.30;;;;;;;10.99;91.81;100272.22;5105807;28;20081;-69
2021/10/28 19:37:38;;;;;;;0.30;0.30;;;;;;;11.00;91.78;100273.09;5121305;28;20027;-68
2021/10/28 19:47:42;;;;;;;0.20;0.20;;;;;;;11.00;91.43;100270.50;5105819;28;20023;-68
2021/10/28 19:50:12;;;;;;;0.20;0.20;;;;;;;10.98;91.73;100256.66;5104485;28;20016;-68
2021/10/28 19:52:38;;;;;;;0.40;0.40;;;;;;;10.97;91.80;100262.75;5105587;28;20024;-69
2021/10/28 19:55:04;;;;;;;0.35;0.35;;;;;;;10.99;92.13;100268.81;5105332;28;20094;-67
2021/10/28 19:57:33;;;;;;;0.52;0.52;;;;;;;10.97;92.09;100263.63;5105532;28;20032;-75
2021/10/28 20:21:32;;;;;;;0.30;0.30;;;;;;;10.88;92.52;100258.50;5061683;28;20071;-66
2021/10/28 20:23:58;;;;;;;0.20;0.20;;;;;;;10.83;92.48;100248.19;5061593;28;20028;-67
2021/10/28 20:26:24;;;;;;;1.70;1.60;;;;;;;10.85;92.48;100258.56;5061341;28;20118;-68
2021/10/28 20:28:51;;;;;;;2.05;1.20;;;;;;;10.86;92.71;100244.72;5061036;28;20493;-67
2021/10/28 20:31:20;;;;;;;1.08;1.02;;;;;;;10.95;92.09;100251.50;5061512;28;21803;-66
2021/10/28 20:34:02;;;;;;;0.25;0.25;;;;;;;10.93;92.40;100261.09;5061381;28;20025;-68
2021/10/28 20:38:55;;;;;;;0.20;0.20;;;;;;;10.85;92.52;100255.94;5061388;28;20029;-67
2021/10/28 20:41:21;;;;;;;0.40;0.40;;;;;;;10.89;92.67;100248.09;5060851;28;20055;-67
2021/10/28 20:43:47;;;;;;;0.20;0.20;;;;;;;10.84;92.57;100257.72;5044154;28;20020;-67
2021/10/28 20:46:19;;;;;;;0.30;0.30;;;;;;;10.88;92.82;100249.00;5060988;28;20088;-67
2021/10/28 20:48:44;;;;;;;1.75;1.05;;;;;;;10.85;92.80;100262.03;5101157;28;20036;-67
2021/10/28 20:51:10;;;;;;;0.20;0.20;;;;;;;10.88;92.53;100256.78;5103990;28;20037;-68
2021/10/28 20:53:36;;;;;;;3.92;1.65;;;;;;;10.84;93.10;100254.25;5104022;28;20103;-67
2021/10/28 20:56:01;;;;;;;0.50;0.50;;;;;;;10.86;92.83;100266.31;5104010;28;20031;-67
2021/10/28 20:58:27;;;;;;;1.00;1.00;;;;;;;10.85;92.93;100262.03;5103640;28;20024;-68
2021/10/28 21:00:53;;;;;;;0.30;0.30;;;;;;;10.88;93.01;100259.38;5103839;28;20093;-67
2021/10/28 21:03:18;;;;;;;4.50;3.67;;;;;;;10.92;92.82;100257.63;5103456;28;20016;-69
2021/10/28 21:05:47;;;;;;;0.20;0.20;;;;;;;10.96;92.51;100245.47;5103839;28;20023;-68